sensor_id;sensor_type;location;lat;lon;timestamp;pressure;altitude;pressure_sealevel;temperature;humidity
24154;BME280;12312;53.362;-1.518;2023-04-28T00:01:23;98518.84;;;7.93;100.00
24154;BME280;12312;53.362;-1.518;2023-04-28T00:04:07;98517.22;;;7.90;100.00
24154;BME280;12312;53.362;-1.518;2023-04-28T00:06:51;98510.81;;;8.05;100.00
24154;BME280;12312;53.362;-1.518;2023-04-28T00:09:35;98501.91;;;8.06;100.00
24154;BME280;12312;53.362;-1.518;2023-04-28T00:12:19;98502.13;;;7.44;100.00
24154;BME280;12312;53.362;-1.518;2023-04-28T00:15:04;98500.41;;;7.91;100.00
24154;BME280;12312;53.362;-1.518;2023-04-28T00:17:48;98487.47;;;7.63;100.00
24154;BME280;12312;53.362;-1.518;2023-04-28T00:20:32;98484.00;;;7.86;100.00
24154;BME280;12312;53.362;-1.518;2023-04-28T00:23:15;98479.63;;;8.09;100.00
24154;BME280;12312;53.362;-1.518;2023-04-28T00:25:59;98480.88;;;8.16;100.00
24154;BME280;12312;53.362;-1.518;2023-04-28T00:28:43;98482.22;;;7.98;100.00
24154;BME280;12312;53.362;-1.518;2023-04-28T00:31:27;98486.13;;;7.81;100.00
24154;BME280;12312;53.362;-1.518;2023-04-28T00:34:11;98476.94;;;7.98;100.00
24154;BME280;12312;53.362;-1.518;2023-04-28T00:36:57;98480.44;;;8.22;100.00
24154;BME280;12312;53.362;-1.518;2023-04-28T00:39:42;98471.72;;;7.85;100.00
24154;BME280;12312;53.362;-1.518;2023-04-28T00:42:29;98472.38;;;7.76;100.00
24154;BME280;12312;53.362;-1.518;2023-04-28T00:45:14;98466.72;;;7.57;100.00
24154;BME280;12312;53.362;-1.518;2023-04-28T00:47:59;98461.88;;;7.51;100.00
24154;BME280;12312;53.362;-1.518;2023-04-28T00:50:44;98457.91;;;7.93;100.00
24154;BME280;12312;53.362;-1.518;2023-04-28T00:53:29;98459.41;;;7.84;100.00
24154;BME280;12312;53.362;-1.518;2023-04-28T00:56:14;98456.19;;;8.15;100.00
24154;BME280;12312;53.362;-1.518;2023-04-28T00:58:58;98454.47;;;8.03;100.00
24154;BME280;12312;53.362;-1.518;2023-04-28T01:01:42;98456.38;;;8.01;100.00
24154;BME280;12312;53.362;-1.518;2023-04-28T01:04:28;98457.13;;;8.14;100.00
24154;BME280;12312;53.362;-1.518;2023-04-28T01:07:12;98460.53;;;7.69;100.00
24154;BME280;12312;53.362;-1.518;2023-04-28T01:09:56;98462.06;;;8.08;100.00
24154;BME280;12312;53.362;-1.518;2023-04-28T01:12:40;98451.97;;;7.89;100.00
24154;BME280;12312;53.362;-1.518;2023-04-28T01:15:24;98445.72;;;8.14;100.00
24154;BME280;12312;53.362;-1.518;2023-04-28T01:18:09;98445.25;;;8.20;100.00
24154;BME280;12312;53.362;-1.518;2023-04-28T01:20:53;98444.09;;;8.00;100.00
24154;BME280;12312;53.362;-1.518;2023-04-28T01:23:37;98431.09;;;8.08;100.00
24154;BME280;12312;53.362;-1.518;2023-04-28T01:26:21;98437.06;;;7.99;100.00
24154;BME280;12312;53.362;-1.518;2023-04-28T01:29:05;98436.03;;;8.13;100.00
24154;BME280;12312;53.362;-1.518;2023-04-28T01:31:49;98437.84;;;8.25;100.00
24154;BME280;12312;53.362;-1.518;2023-04-28T01:34:33;98422.75;;;8.25;100.00
24154;BME280;12312;53.362;-1.518;2023-04-28T01:37:17;98423.75;;;8.12;100.00
24154;BME280;12312;53.362;-1.518;2023-04-28T01:40:01;98425.03;;;7.95;100.00
24154;BME280;12312;53.362;-1.518;2023-04-28T01:42:45;98432.34;;;8.15;100.00
24154;BME280;12312;53.362;-1.518;2023-04-28T01:45:29;98433.28;;;8.14;100.00
24154;BME280;12312;53.362;-1.518;2023-04-28T01:48:13;98429.75;;;8.26;100.00
24154;BME280;12312;53.362;-1.518;2023-04-28T01:50:57;98418.34;;;8.48;100.00
24154;BME280;12312;53.362;-1.518;2023-04-28T01:53:41;98409.50;;;8.25;100.00
24154;BME280;12312;53.362;-1.518;2023-04-28T01:56:25;98415.13;;;8.21;100.00
24154;BME280;12312;53.362;-1.518;2023-04-28T01:59:09;98410.69;;;8.21;100.00
24154;BME280;12312;53.362;-1.518;2023-04-28T02:01:54;98411.13;;;8.15;100.00
24154;BME280;12312;53.362;-1.518;2023-04-28T02:04:38;98410.03;;;8.41;100.00
24154;BME280;12312;53.362;-1.518;2023-04-28T02:07:22;98403.16;;;8.28;100.00
24154;BME280;12312;53.362;-1.518;2023-04-28T02:10:07;98404.97;;;8.38;100.00
24154;BME280;12312;53.362;-1.518;2023-04-28T02:12:51;98407.09;;;8.22;100.00
24154;BME280;12312;53.362;-1.518;2023-04-28T02:15:40;98395.84;;;8.53;100.00
24154;BME280;12312;53.362;-1.518;2023-04-28T02:18:24;98408.44;;;8.04;100.00
24154;BME280;12312;53.362;-1.518;2023-04-28T02:21:09;98409.19;;;8.17;100.00
24154;BME280;12312;53.362;-1.518;2023-04-28T02:23:56;98405.56;;;8.07;100.00
24154;BME280;12312;53.362;-1.518;2023-04-28T02:26:40;98405.97;;;7.90;100.00
24154;BME280;12312;53.362;-1.518;2023-04-28T02:29:25;98402.91;;;8.07;100.00
24154;BME280;12312;53.362;-1.518;2023-04-28T02:32:10;98396.47;;;8.22;100.00
24154;BME280;12312;53.362;-1.518;2023-04-28T02:34:54;98401.13;;;7.84;100.00
24154;BME280;12312;53.362;-1.518;2023-04-28T02:37:40;98402.53;;;8.01;100.00
24154;BME280;12312;53.362;-1.518;2023-04-28T02:40:24;98398.59;;;8.17;100.00
24154;BME280;12312;53.362;-1.518;2023-04-28T02:43:08;98389.19;;;8.13;100.00
24154;BME280;12312;53.362;-1.518;2023-04-28T02:45:52;98387.69;;;8.22;100.00
24154;BME280;12312;53.362;-1.518;2023-04-28T02:48:37;98386.56;;;8.13;100.00
24154;BME280;12312;53.362;-1.518;2023-04-28T02:51:21;98394.78;;;8.21;100.00
24154;BME280;12312;53.362;-1.518;2023-04-28T02:54:05;98395.06;;;8.29;100.00
24154;BME280;12312;53.362;-1.518;2023-04-28T02:56:49;98392.84;;;7.89;100.00
24154;BME280;12312;53.362;-1.518;2023-04-28T02:59:33;98391.47;;;8.07;100.00
24154;BME280;12312;53.362;-1.518;2023-04-28T03:02:18;98393.88;;;8.10;100.00
24154;BME280;12312;53.362;-1.518;2023-04-28T03:05:03;98389.72;;;8.18;100.00
24154;BME280;12312;53.362;-1.518;2023-04-28T03:07:48;98388.25;;;8.49;100.00
24154;BME280;12312;53.362;-1.518;2023-04-28T03:10:32;98386.91;;;8.54;100.00
24154;BME280;12312;53.362;-1.518;2023-04-28T03:13:16;98383.50;;;8.30;100.00
24154;BME280;12312;53.362;-1.518;2023-04-28T03:16:00;98389.06;;;8.49;100.00
24154;BME280;12312;53.362;-1.518;2023-04-28T03:18:44;98382.31;;;8.45;100.00
24154;BME280;12312;53.362;-1.518;2023-04-28T03:21:28;98385.69;;;8.36;100.00
24154;BME280;12312;53.362;-1.518;2023-04-28T03:24:12;98379.63;;;8.34;100.00
24154;BME280;12312;53.362;-1.518;2023-04-28T03:26:56;98381.22;;;8.37;100.00
24154;BME280;12312;53.362;-1.518;2023-04-28T03:29:40;98382.16;;;8.36;100.00
24154;BME280;12312;53.362;-1.518;2023-04-28T03:32:24;98377.16;;;8.55;100.00
24154;BME280;12312;53.362;-1.518;2023-04-28T03:35:08;98382.56;;;8.53;100.00
24154;BME280;12312;53.362;-1.518;2023-04-28T03:37:52;98379.81;;;8.55;100.00
24154;BME280;12312;53.362;-1.518;2023-04-28T03:40:36;98366.66;;;8.64;100.00
24154;BME280;12312;53.362;-1.518;2023-04-28T03:43:20;98374.47;;;8.44;100.00
24154;BME280;12312;53.362;-1.518;2023-04-28T03:46:04;98356.03;;;8.64;100.00
24154;BME280;12312;53.362;-1.518;2023-04-28T03:48:48;98359.44;;;8.77;100.00
24154;BME280;12312;53.362;-1.518;2023-04-28T03:51:32;98349.06;;;8.63;100.00
24154;BME280;12312;53.362;-1.518;2023-04-28T03:54:16;98354.25;;;8.43;100.00
24154;BME280;12312;53.362;-1.518;2023-04-28T03:57:01;98347.38;;;8.62;100.00
24154;BME280;12312;53.362;-1.518;2023-04-28T03:59:45;98344.97;;;8.59;100.00
24154;BME280;12312;53.362;-1.518;2023-04-28T04:02:29;98342.78;;;8.42;100.00
24154;BME280;12312;53.362;-1.518;2023-04-28T04:05:14;98327.47;;;8.57;100.00
24154;BME280;12312;53.362;-1.518;2023-04-28T04:07:58;98336.28;;;8.46;100.00
24154;BME280;12312;53.362;-1.518;2023-04-28T04:10:42;98350.16;;;8.50;100.00
24154;BME280;12312;53.362;-1.518;2023-04-28T04:13:26;98352.19;;;8.46;100.00
24154;BME280;12312;53.362;-1.518;2023-04-28T04:16:10;98350.97;;;8.39;100.00
24154;BME280;12312;53.362;-1.518;2023-04-28T04:18:55;98361.34;;;8.64;100.00
24154;BME280;12312;53.362;-1.518;2023-04-28T04:21:38;98355.09;;;8.65;100.00
24154;BME280;12312;53.362;-1.518;2023-04-28T04:24:24;98360.53;;;8.75;100.00
24154;BME280;12312;53.362;-1.518;2023-04-28T04:27:08;98364.13;;;8.74;100.00
24154;BME280;12312;53.362;-1.518;2023-04-28T04:29:52;98366.06;;;8.83;100.00
24154;BME280;12312;53.362;-1.518;2023-04-28T04:32:36;98360.53;;;8.64;100.00
24154;BME280;12312;53.362;-1.518;2023-04-28T04:35:20;98354.59;;;8.60;100.00
24154;BME280;12312;53.362;-1.518;2023-04-28T04:38:04;98368.34;;;8.65;100.00
24154;BME280;12312;53.362;-1.518;2023-04-28T04:40:48;98362.81;;;8.79;100.00
24154;BME280;12312;53.362;-1.518;2023-04-28T04:43:32;98364.25;;;8.72;100.00
24154;BME280;12312;53.362;-1.518;2023-04-28T04:46:16;98357.50;;;8.68;100.00
24154;BME280;12312;53.362;-1.518;2023-04-28T04:49:00;98364.72;;;8.66;100.00
24154;BME280;12312;53.362;-1.518;2023-04-28T04:51:44;98357.03;;;8.74;100.00
24154;BME280;12312;53.362;-1.518;2023-04-28T04:54:28;98364.00;;;8.53;100.00
24154;BME280;12312;53.362;-1.518;2023-04-28T04:57:13;98365.22;;;8.71;100.00
24154;BME280;12312;53.362;-1.518;2023-04-28T04:59:57;98370.28;;;8.85;100.00
24154;BME280;12312;53.362;-1.518;2023-04-28T05:02:41;98365.69;;;8.98;100.00
24154;BME280;12312;53.362;-1.518;2023-04-28T05:05:25;98371.25;;;8.95;100.00
24154;BME280;12312;53.362;-1.518;2023-04-28T05:08:10;98379.81;;;8.88;100.00
24154;BME280;12312;53.362;-1.518;2023-04-28T05:10:55;98385.47;;;8.72;100.00
24154;BME280;12312;53.362;-1.518;2023-04-28T05:13:38;98381.41;;;8.79;100.00
24154;BME280;12312;53.362;-1.518;2023-04-28T05:16:23;98380.91;;;8.85;100.00
24154;BME280;12312;53.362;-1.518;2023-04-28T05:19:07;98384.75;;;8.92;100.00
24154;BME280;12312;53.362;-1.518;2023-04-28T05:21:50;98381.84;;;8.95;100.00
24154;BME280;12312;53.362;-1.518;2023-04-28T05:24:37;98386.69;;;8.90;100.00
24154;BME280;12312;53.362;-1.518;2023-04-28T05:27:21;98391.63;;;8.84;100.00
24154;BME280;12312;53.362;-1.518;2023-04-28T05:30:06;98390.28;;;8.78;100.00
24154;BME280;12312;53.362;-1.518;2023-04-28T05:32:52;98398.16;;;9.56;100.00
24154;BME280;12312;53.362;-1.518;2023-04-28T05:35:36;98398.81;;;9.37;100.00
24154;BME280;12312;53.362;-1.518;2023-04-28T05:38:20;98405.81;;;9.38;100.00
24154;BME280;12312;53.362;-1.518;2023-04-28T05:41:04;98410.69;;;9.65;100.00
24154;BME280;12312;53.362;-1.518;2023-04-28T05:43:48;98414.22;;;9.54;100.00
24154;BME280;12312;53.362;-1.518;2023-04-28T05:46:35;98420.19;;;9.36;100.00
24154;BME280;12312;53.362;-1.518;2023-04-28T05:49:19;98412.59;;;8.76;100.00
24154;BME280;12312;53.362;-1.518;2023-04-28T05:52:03;98422.13;;;8.78;100.00
24154;BME280;12312;53.362;-1.518;2023-04-28T05:54:47;98424.03;;;8.54;100.00
24154;BME280;12312;53.362;-1.518;2023-04-28T05:57:32;98419.47;;;8.67;100.00
24154;BME280;12312;53.362;-1.518;2023-04-28T06:00:16;98419.81;;;8.52;100.00
24154;BME280;12312;53.362;-1.518;2023-04-28T06:03:01;98409.09;;;8.64;100.00
24154;BME280;12312;53.362;-1.518;2023-04-28T06:05:45;98411.28;;;8.59;100.00
24154;BME280;12312;53.362;-1.518;2023-04-28T06:08:29;98414.38;;;8.42;100.00
24154;BME280;12312;53.362;-1.518;2023-04-28T06:11:13;98412.09;;;8.60;100.00
24154;BME280;12312;53.362;-1.518;2023-04-28T06:13:57;98414.63;;;8.61;100.00
24154;BME280;12312;53.362;-1.518;2023-04-28T06:16:41;98406.19;;;8.67;100.00
24154;BME280;12312;53.362;-1.518;2023-04-28T06:19:25;98418.00;;;8.63;100.00
24154;BME280;12312;53.362;-1.518;2023-04-28T06:22:10;98423.09;;;8.66;100.00
24154;BME280;12312;53.362;-1.518;2023-04-28T06:24:54;98429.09;;;8.57;100.00
24154;BME280;12312;53.362;-1.518;2023-04-28T06:27:38;98429.63;;;8.73;100.00
24154;BME280;12312;53.362;-1.518;2023-04-28T06:30:22;98424.03;;;8.54;100.00
24154;BME280;12312;53.362;-1.518;2023-04-28T06:33:06;98436.16;;;8.35;100.00
24154;BME280;12312;53.362;-1.518;2023-04-28T06:35:51;98435.50;;;8.77;100.00
24154;BME280;12312;53.362;-1.518;2023-04-28T06:38:35;98434.41;;;8.57;100.00
24154;BME280;12312;53.362;-1.518;2023-04-28T06:41:21;98435.13;;;8.70;100.00
24154;BME280;12312;53.362;-1.518;2023-04-28T06:44:06;98441.44;;;8.80;100.00
24154;BME280;12312;53.362;-1.518;2023-04-28T06:46:50;98448.63;;;8.56;100.00
24154;BME280;12312;53.362;-1.518;2023-04-28T06:49:34;98452.47;;;8.52;100.00
24154;BME280;12312;53.362;-1.518;2023-04-28T06:52:18;98434.25;;;8.37;100.00
24154;BME280;12312;53.362;-1.518;2023-04-28T06:55:06;98441.53;;;8.68;100.00
24154;BME280;12312;53.362;-1.518;2023-04-28T06:57:50;98446.72;;;8.69;100.00
24154;BME280;12312;53.362;-1.518;2023-04-28T07:00:34;98443.03;;;8.37;100.00
24154;BME280;12312;53.362;-1.518;2023-04-28T07:03:19;98450.75;;;8.29;100.00
24154;BME280;12312;53.362;-1.518;2023-04-28T07:06:03;98454.56;;;8.82;100.00
24154;BME280;12312;53.362;-1.518;2023-04-28T07:08:48;98445.63;;;8.61;100.00
24154;BME280;12312;53.362;-1.518;2023-04-28T07:11:31;98451.72;;;8.39;100.00
24154;BME280;12312;53.362;-1.518;2023-04-28T07:14:15;98455.00;;;8.43;100.00
24154;BME280;12312;53.362;-1.518;2023-04-28T07:16:59;98457.25;;;8.36;100.00
24154;BME280;12312;53.362;-1.518;2023-04-28T07:19:44;98452.81;;;8.48;100.00
24154;BME280;12312;53.362;-1.518;2023-04-28T07:22:28;98461.34;;;8.40;100.00
24154;BME280;12312;53.362;-1.518;2023-04-28T07:25:12;98470.78;;;8.44;100.00
24154;BME280;12312;53.362;-1.518;2023-04-28T07:27:56;98472.72;;;8.53;100.00
24154;BME280;12312;53.362;-1.518;2023-04-28T07:30:40;98481.63;;;8.41;100.00
24154;BME280;12312;53.362;-1.518;2023-04-28T07:33:24;98478.84;;;8.54;100.00
24154;BME280;12312;53.362;-1.518;2023-04-28T07:36:08;98494.19;;;8.50;100.00
24154;BME280;12312;53.362;-1.518;2023-04-28T07:38:53;98493.91;;;8.42;100.00
24154;BME280;12312;53.362;-1.518;2023-04-28T07:41:37;98499.97;;;8.55;100.00
24154;BME280;12312;53.362;-1.518;2023-04-28T07:44:20;98498.13;;;8.79;100.00
24154;BME280;12312;53.362;-1.518;2023-04-28T07:47:04;98504.41;;;8.89;100.00
24154;BME280;12312;53.362;-1.518;2023-04-28T07:49:49;98501.81;;;8.77;100.00
24154;BME280;12312;53.362;-1.518;2023-04-28T07:52:34;98504.53;;;8.99;100.00
24154;BME280;12312;53.362;-1.518;2023-04-28T07:55:18;98507.78;;;8.91;100.00
24154;BME280;12312;53.362;-1.518;2023-04-28T07:58:02;98510.91;;;8.96;100.00
24154;BME280;12312;53.362;-1.518;2023-04-28T08:00:46;98503.47;;;9.13;100.00
24154;BME280;12312;53.362;-1.518;2023-04-28T08:03:30;98513.97;;;9.14;100.00
24154;BME280;12312;53.362;-1.518;2023-04-28T08:06:14;98513.59;;;9.07;100.00
24154;BME280;12312;53.362;-1.518;2023-04-28T08:08:59;98524.78;;;9.00;100.00
24154;BME280;12312;53.362;-1.518;2023-04-28T08:11:43;98523.22;;;8.97;100.00
24154;BME280;12312;53.362;-1.518;2023-04-28T08:14:27;98530.84;;;9.02;100.00
24154;BME280;12312;53.362;-1.518;2023-04-28T08:17:11;98530.13;;;9.11;100.00
24154;BME280;12312;53.362;-1.518;2023-04-28T08:19:55;98540.16;;;9.30;100.00
24154;BME280;12312;53.362;-1.518;2023-04-28T08:22:39;98536.28;;;9.23;100.00
24154;BME280;12312;53.362;-1.518;2023-04-28T08:25:23;98545.34;;;9.20;100.00
24154;BME280;12312;53.362;-1.518;2023-04-28T08:28:07;98545.34;;;9.20;100.00
24154;BME280;12312;53.362;-1.518;2023-04-28T08:30:51;98551.75;;;9.40;100.00
24154;BME280;12312;53.362;-1.518;2023-04-28T08:33:38;98570.66;;;9.13;100.00
24154;BME280;12312;53.362;-1.518;2023-04-28T08:36:22;98565.47;;;9.23;100.00
24154;BME280;12312;53.362;-1.518;2023-04-28T08:39:08;98572.59;;;9.11;100.00
24154;BME280;12312;53.362;-1.518;2023-04-28T08:41:53;98568.69;;;9.04;100.00
24154;BME280;12312;53.362;-1.518;2023-04-28T08:44:38;98566.94;;;9.38;100.00
24154;BME280;12312;53.362;-1.518;2023-04-28T08:47:36;98569.13;;;9.44;100.00
24154;BME280;12312;53.362;-1.518;2023-04-28T08:50:40;98580.97;;;9.51;100.00
24154;BME280;12312;53.362;-1.518;2023-04-28T08:53:27;98582.41;;;9.44;100.00
24154;BME280;12312;53.362;-1.518;2023-04-28T08:56:13;98579.03;;;9.53;100.00
24154;BME280;12312;53.362;-1.518;2023-04-28T08:59:02;98590.25;;;9.56;100.00
24154;BME280;12312;53.362;-1.518;2023-04-28T09:01:50;98580.81;;;9.63;100.00
24154;BME280;12312;53.362;-1.518;2023-04-28T09:04:35;98581.66;;;9.31;100.00
24154;BME280;12312;53.362;-1.518;2023-04-28T09:07:19;98588.44;;;9.46;100.00
24154;BME280;12312;53.362;-1.518;2023-04-28T09:10:16;98591.56;;;9.62;100.00
24154;BME280;12312;53.362;-1.518;2023-04-28T09:13:00;98601.50;;;9.60;100.00
24154;BME280;12312;53.362;-1.518;2023-04-28T09:15:46;98598.84;;;9.60;100.00
24154;BME280;12312;53.362;-1.518;2023-04-28T09:18:33;98605.56;;;9.31;100.00
24154;BME280;12312;53.362;-1.518;2023-04-28T09:21:17;98615.94;;;9.34;100.00
24154;BME280;12312;53.362;-1.518;2023-04-28T09:24:01;98612.09;;;9.49;100.00
24154;BME280;12312;53.362;-1.518;2023-04-28T09:26:49;98612.59;;;9.54;100.00
24154;BME280;12312;53.362;-1.518;2023-04-28T09:29:33;98609.81;;;9.55;100.00
24154;BME280;12312;53.362;-1.518;2023-04-28T09:32:19;98610.19;;;9.84;100.00
24154;BME280;12312;53.362;-1.518;2023-04-28T09:35:04;98618.16;;;9.73;100.00
24154;BME280;12312;53.362;-1.518;2023-04-28T09:37:57;98611.16;;;9.83;100.00
24154;BME280;12312;53.362;-1.518;2023-04-28T09:41:00;98619.13;;;9.72;100.00
24154;BME280;12312;53.362;-1.518;2023-04-28T09:43:45;98633.13;;;9.85;100.00
24154;BME280;12312;53.362;-1.518;2023-04-28T09:46:28;98636.03;;;9.93;100.00
24154;BME280;12312;53.362;-1.518;2023-04-28T09:49:13;98630.47;;;9.96;100.00
24154;BME280;12312;53.362;-1.518;2023-04-28T09:52:11;98630.72;;;10.15;100.00
24154;BME280;12312;53.362;-1.518;2023-04-28T09:54:56;98627.59;;;10.10;100.00
24154;BME280;12312;53.362;-1.518;2023-04-28T09:57:43;98638.94;;;10.23;100.00
24154;BME280;12312;53.362;-1.518;2023-04-28T10:00:32;98645.22;;;10.33;100.00
24154;BME280;12312;53.362;-1.518;2023-04-28T10:03:16;98637.75;;;10.16;100.00
24154;BME280;12312;53.362;-1.518;2023-04-28T10:06:02;98648.34;;;10.38;100.00
24154;BME280;12312;53.362;-1.518;2023-04-28T10:08:47;98644.22;;;10.45;100.00
24154;BME280;12312;53.362;-1.518;2023-04-28T10:11:34;98647.53;;;10.80;100.00
24154;BME280;12312;53.362;-1.518;2023-04-28T10:14:18;98653.94;;;10.66;100.00
24154;BME280;12312;53.362;-1.518;2023-04-28T10:17:03;98660.88;;;10.58;100.00
24154;BME280;12312;53.362;-1.518;2023-04-28T10:19:49;98660.22;;;10.34;100.00
24154;BME280;12312;53.362;-1.518;2023-04-28T10:22:53;98665.19;;;10.70;100.00
24154;BME280;12312;53.362;-1.518;2023-04-28T10:25:43;98670.09;;;10.54;100.00
24154;BME280;12312;53.362;-1.518;2023-04-28T10:28:31;98677.84;;;10.35;100.00
24154;BME280;12312;53.362;-1.518;2023-04-28T10:31:19;98671.03;;;10.53;100.00
24154;BME280;12312;53.362;-1.518;2023-04-28T10:34:23;98676.34;;;10.64;100.00
24154;BME280;12312;53.362;-1.518;2023-04-28T10:37:08;98682.53;;;10.42;100.00
24154;BME280;12312;53.362;-1.518;2023-04-28T10:46:14;98690.41;;;10.55;100.00
24154;BME280;12312;53.362;-1.518;2023-04-28T10:48:57;98693.06;;;10.55;100.00
24154;BME280;12312;53.362;-1.518;2023-04-28T10:51:41;98709.16;;;10.42;100.00
24154;BME280;12312;53.362;-1.518;2023-04-28T10:54:25;98701.78;;;10.57;100.00
24154;BME280;12312;53.362;-1.518;2023-04-28T10:57:15;98711.53;;;10.78;100.00
24154;BME280;12312;53.362;-1.518;2023-04-28T11:00:26;98711.59;;;10.88;100.00
24154;BME280;12312;53.362;-1.518;2023-04-28T11:06:24;98721.13;;;10.37;100.00
24154;BME280;12312;53.362;-1.518;2023-04-28T11:12:14;98740.97;;;10.33;100.00
24154;BME280;12312;53.362;-1.518;2023-04-28T11:15:10;98731.97;;;10.56;100.00
24154;BME280;12312;53.362;-1.518;2023-04-28T11:17:56;98728.13;;;10.38;100.00
24154;BME280;12312;53.362;-1.518;2023-04-28T11:20:48;98734.69;;;10.45;100.00
24154;BME280;12312;53.362;-1.518;2023-04-28T11:23:38;98740.94;;;10.55;100.00
24154;BME280;12312;53.362;-1.518;2023-04-28T11:26:24;98732.50;;;10.39;100.00
24154;BME280;12312;53.362;-1.518;2023-04-28T11:29:11;98743.09;;;10.72;100.00
24154;BME280;12312;53.362;-1.518;2023-04-28T11:31:55;98738.16;;;10.56;100.00
24154;BME280;12312;53.362;-1.518;2023-04-28T11:34:39;98752.31;;;10.46;100.00
24154;BME280;12312;53.362;-1.518;2023-04-28T11:37:25;98751.84;;;10.63;100.00
24154;BME280;12312;53.362;-1.518;2023-04-28T11:40:11;98753.28;;;10.56;100.00
24154;BME280;12312;53.362;-1.518;2023-04-28T11:42:56;98758.97;;;10.62;100.00
24154;BME280;12312;53.362;-1.518;2023-04-28T11:45:45;98759.50;;;10.88;100.00
24154;BME280;12312;53.362;-1.518;2023-04-28T11:48:30;98769.72;;;10.72;100.00
24154;BME280;12312;53.362;-1.518;2023-04-28T11:51:46;98777.22;;;10.78;100.00
24154;BME280;12312;53.362;-1.518;2023-04-28T11:54:37;98777.00;;;10.48;100.00
24154;BME280;12312;53.362;-1.518;2023-04-28T11:57:21;98790.78;;;10.42;100.00
24154;BME280;12312;53.362;-1.518;2023-04-28T12:00:16;98802.59;;;10.71;100.00
24154;BME280;12312;53.362;-1.518;2023-04-28T12:03:07;98798.53;;;10.45;100.00
24154;BME280;12312;53.362;-1.518;2023-04-28T12:05:51;98804.81;;;10.33;100.00
24154;BME280;12312;53.362;-1.518;2023-04-28T12:08:35;98810.94;;;10.33;100.00
24154;BME280;12312;53.362;-1.518;2023-04-28T12:11:20;98810.94;;;10.33;100.00
24154;BME280;12312;53.362;-1.518;2023-04-28T12:14:05;98824.63;;;10.40;100.00
24154;BME280;12312;53.362;-1.518;2023-04-28T12:16:50;98829.53;;;10.22;100.00
24154;BME280;12312;53.362;-1.518;2023-04-28T12:19:45;98829.34;;;10.47;100.00
24154;BME280;12312;53.362;-1.518;2023-04-28T12:22:29;98834.88;;;10.22;100.00
24154;BME280;12312;53.362;-1.518;2023-04-28T12:25:15;98845.16;;;10.38;100.00
24154;BME280;12312;53.362;-1.518;2023-04-28T12:28:05;98853.81;;;10.07;100.00
24154;BME280;12312;53.362;-1.518;2023-04-28T12:31:03;98855.78;;;10.16;100.00
24154;BME280;12312;53.362;-1.518;2023-04-28T12:33:47;98851.53;;;10.13;100.00
24154;BME280;12312;53.362;-1.518;2023-04-28T12:36:31;98862.06;;;10.26;100.00
24154;BME280;12312;53.362;-1.518;2023-04-28T12:39:16;98859.03;;;10.08;100.00
24154;BME280;12312;53.362;-1.518;2023-04-28T12:42:03;98867.25;;;10.16;100.00
24154;BME280;12312;53.362;-1.518;2023-04-28T12:44:47;98870.16;;;10.24;100.00
24154;BME280;12312;53.362;-1.518;2023-04-28T12:47:31;98872.72;;;10.26;100.00
24154;BME280;12312;53.362;-1.518;2023-04-28T12:50:16;98878.03;;;10.26;100.00
24154;BME280;12312;53.362;-1.518;2023-04-28T12:53:00;98883.13;;;10.29;100.00
24154;BME280;12312;53.362;-1.518;2023-04-28T12:55:44;98887.50;;;10.41;100.00
24154;BME280;12312;53.362;-1.518;2023-04-28T12:58:29;98884.38;;;10.36;100.00
24154;BME280;12312;53.362;-1.518;2023-04-28T13:01:13;98893.91;;;10.38;100.00
24154;BME280;12312;53.362;-1.518;2023-04-28T13:03:58;98891.84;;;10.31;100.00
24154;BME280;12312;53.362;-1.518;2023-04-28T13:06:42;98891.34;;;10.26;100.00
24154;BME280;12312;53.362;-1.518;2023-04-28T13:09:27;98895.47;;;10.30;100.00
24154;BME280;12312;53.362;-1.518;2023-04-28T13:12:11;98908.50;;;10.22;100.00
24154;BME280;12312;53.362;-1.518;2023-04-28T13:14:56;98907.84;;;10.42;100.00
24154;BME280;12312;53.362;-1.518;2023-04-28T13:17:40;98910.09;;;10.35;100.00
24154;BME280;12312;53.362;-1.518;2023-04-28T13:20:24;98911.44;;;10.30;100.00
24154;BME280;12312;53.362;-1.518;2023-04-28T13:23:08;98909.50;;;10.43;100.00
24154;BME280;12312;53.362;-1.518;2023-04-28T13:25:52;98916.78;;;10.52;100.00
24154;BME280;12312;53.362;-1.518;2023-04-28T13:28:36;98914.88;;;10.54;100.00
24154;BME280;12312;53.362;-1.518;2023-04-28T13:31:20;98916.34;;;10.69;100.00
24154;BME280;12312;53.362;-1.518;2023-04-28T13:34:04;98925.28;;;10.79;100.00
24154;BME280;12312;53.362;-1.518;2023-04-28T13:36:48;98922.41;;;10.93;100.00
24154;BME280;12312;53.362;-1.518;2023-04-28T13:39:33;98912.38;;;10.97;100.00
24154;BME280;12312;53.362;-1.518;2023-04-28T13:42:17;98920.81;;;11.02;100.00
24154;BME280;12312;53.362;-1.518;2023-04-28T13:45:01;98921.44;;;11.05;100.00
24154;BME280;12312;53.362;-1.518;2023-04-28T13:47:46;98926.28;;;11.11;100.00
24154;BME280;12312;53.362;-1.518;2023-04-28T13:50:31;98927.22;;;11.21;100.00
24154;BME280;12312;53.362;-1.518;2023-04-28T13:53:16;98941.28;;;11.23;100.00
24154;BME280;12312;53.362;-1.518;2023-04-28T13:56:00;98934.88;;;11.04;100.00
24154;BME280;12312;53.362;-1.518;2023-04-28T13:58:44;98937.03;;;10.99;100.00
24154;BME280;12312;53.362;-1.518;2023-04-28T14:01:28;98942.03;;;10.92;100.00
24154;BME280;12312;53.362;-1.518;2023-04-28T14:04:12;98947.47;;;10.91;100.00
24154;BME280;12312;53.362;-1.518;2023-04-28T14:06:56;98947.81;;;10.97;100.00
24154;BME280;12312;53.362;-1.518;2023-04-28T14:09:40;98946.13;;;11.07;100.00
24154;BME280;12312;53.362;-1.518;2023-04-28T14:12:25;98944.41;;;11.06;100.00
24154;BME280;12312;53.362;-1.518;2023-04-28T14:15:09;98940.78;;;11.29;100.00
24154;BME280;12312;53.362;-1.518;2023-04-28T14:17:53;98936.69;;;11.36;100.00
24154;BME280;12312;53.362;-1.518;2023-04-28T14:20:37;98945.25;;;11.51;100.00
24154;BME280;12312;53.362;-1.518;2023-04-28T14:23:22;98943.69;;;11.37;100.00
24154;BME280;12312;53.362;-1.518;2023-04-28T14:26:05;98949.75;;;11.39;100.00
24154;BME280;12312;53.362;-1.518;2023-04-28T14:28:50;98949.28;;;11.45;100.00
24154;BME280;12312;53.362;-1.518;2023-04-28T14:31:34;98952.41;;;11.17;100.00
24154;BME280;12312;53.362;-1.518;2023-04-28T14:34:18;98962.09;;;11.51;100.00